Terminal Aerodrome Forecast
Issued by NWS

Home | Current Version | Previous Version | Text Only | Print | Product List | Glossary On
Versions: 1 2 3 4 5 6 7 8 9 10 11 12 13 14 15 16 17 18 19 20 21 22 23 24
899
FTUS43 KICT 250520
TAFCNU
TAF
KCNU 250520Z 2506/2606 VRB05KT P6SM VCTS SCT040 BKN080CB
     FM250900 15006KT P6SM VCTS BKN015CB
     FM251600 14006KT P6SM SCT020 BKN100
     FM252200 13008KT P6SM VCTS SCT035CB BKN100=

USA.gov is the U.S. government's official web portal to all federal, state and local government web resources and services.